Time;durP1;ratioP1;P1;durP2;ratioP2;P2;SDS_P1;SDS_P2;PMS_P1;PMS_P2;Temp;Humidity;BMP_temperature;BMP_pressure;BME280_temperature;BME280_humidity;BME280_pressure;Samples;Min_cycle;Max_cycle;Signal;HPM_P1;HPM_P2
2021/10/13 00:00:45;;;;;;;8.27;7.25;;;;;;;;;;2095477;28;20198;-56
2021/10/13 00:01:46;;;;;;;12.50;8.83;;;;;;;;;;2096424;28;20175;-55
2021/10/13 00:02:46;;;;;;;9.87;7.87;;;;;;;;;;2099257;28;20182;-57
2021/10/13 00:03:46;;;;;;;8.20;7.23;;;;;;;;;;2105434;28;20170;-57
2021/10/13 00:04:47;;;;;;;9.43;7.13;;;;;;;;;;2082016;28;20234;-56
2021/10/13 00:05:47;;;;;;;10.57;6.93;;;;;;;;;;2086001;28;20217;-57
2021/10/13 00:06:47;;;;;;;9.10;7.47;;;;;;;;;;2089000;28;20187;-60
2021/10/13 00:07:48;;;;;;;17.17;7.93;;;;;;;;;;2091368;28;20558;-61
2021/10/13 00:08:48;;;;;;;11.83;6.53;;;;;;;;;;2105641;28;20593;-60
2021/10/13 00:09:48;;;;;;;8.93;7.13;;;;;;;;;;2096990;28;20181;-60
2021/10/13 00:10:49;;;;;;;13.25;7.70;;;;;;;;;;2103005;28;20170;-56
2021/10/13 00:11:49;;;;;;;9.85;6.55;;;;;;;;;;2089873;28;20229;-54
2021/10/13 00:12:49;;;;;;;11.17;6.90;;;;;;;;;;2088315;28;20190;-52
2021/10/13 00:13:49;;;;;;;10.50;7.00;;;;;;;;;;2088003;28;20183;-57
2021/10/13 00:14:50;;;;;;;12.10;7.23;;;;;;;;;;2087551;28;20199;-57
2021/10/13 00:15:50;;;;;;;14.10;7.30;;;;;;;;;;2080890;28;20215;-63
2021/10/13 00:17:24;;;;;;;14.07;7.00;;;;;;;;;;2091419;28;20167;-61
2021/10/13 00:18:17;;;;;;;11.73;7.23;;;;;;;;;;2092738;28;20239;-59
2021/10/13 00:19:18;;;;;;;11.97;7.80;;;;;;;;;;2099449;28;20187;-63
2021/10/13 00:20:19;;;;;;;13.87;7.43;;;;;;;;;;2100012;28;20171;-62
2021/10/13 00:21:19;;;;;;;14.63;7.40;;;;;;;;;;2097810;28;20217;-59
2021/10/13 00:22:19;;;;;;;12.63;7.77;;;;;;;;;;2097233;28;20178;-57
2021/10/13 00:23:20;;;;;;;11.17;7.97;;;;;;;;;;2093141;28;20183;-60
2021/10/13 00:24:20;;;;;;;12.37;7.80;;;;;;;;;;2088004;28;20186;-54
2021/10/13 00:25:20;;;;;;;9.30;7.37;;;;;;;;;;2092755;28;20175;-58
2021/10/13 00:26:20;;;;;;;12.30;8.63;;;;;;;;;;2102799;28;20181;-54
2021/10/13 00:27:21;;;;;;;11.53;7.93;;;;;;;;;;2094244;28;20175;-59
2021/10/13 00:28:21;;;;;;;9.47;8.10;;;;;;;;;;2095633;28;20187;-58
2021/10/13 00:29:21;;;;;;;15.53;8.93;;;;;;;;;;2095144;28;20187;-59
2021/10/13 00:30:22;;;;;;;11.00;8.30;;;;;;;;;;2091366;28;20223;-59
2021/10/13 00:31:22;;;;;;;14.00;8.97;;;;;;;;;;2101387;28;20181;-60
2021/10/13 00:32:22;;;;;;;15.37;8.67;;;;;;;;;;2104935;28;20616;-59
2021/10/13 00:33:23;;;;;;;12.97;8.30;;;;;;;;;;2097966;28;20178;-56
2021/10/13 00:34:23;;;;;;;13.87;8.80;;;;;;;;;;2095871;28;20209;-56
2021/10/13 00:35:23;;;;;;;11.80;8.13;;;;;;;;;;2100722;28;20170;-60
2021/10/13 00:36:24;;;;;;;11.10;9.33;;;;;;;;;;2100236;28;20228;-57
2021/10/13 00:37:24;;;;;;;17.93;9.23;;;;;;;;;;2087974;28;20569;-58
2021/10/13 00:38:24;;;;;;;11.87;9.90;;;;;;;;;;2080862;28;20171;-60
2021/10/13 00:39:25;;;;;;;12.13;10.30;;;;;;;;;;2101196;28;20182;-58
2021/10/13 00:40:26;;;;;;;15.17;9.83;;;;;;;;;;2104172;28;20181;-51
2021/10/13 00:41:27;;;;;;;18.73;10.27;;;;;;;;;;2094690;28;20591;-60
2021/10/13 00:42:27;;;;;;;15.93;9.30;;;;;;;;;;2087352;28;20178;-55
2021/10/13 00:43:28;;;;;;;14.87;9.93;;;;;;;;;;2093856;28;20237;-60
2021/10/13 00:44:28;;;;;;;12.63;9.57;;;;;;;;;;2099566;28;20187;-58
2021/10/13 00:45:28;;;;;;;17.00;10.07;;;;;;;;;;2096226;28;20183;-56
2021/10/13 00:46:29;;;;;;;12.40;8.57;;;;;;;;;;2098792;28;20198;-59
2021/10/13 00:47:29;;;;;;;14.82;8.57;;;;;;;;;;2094298;28;20182;-57
2021/10/13 00:48:29;;;;;;;15.53;8.53;;;;;;;;;;2091430;28;20175;-61
2021/10/13 00:49:30;;;;;;;8.60;7.60;;;;;;;;;;2100373;28;20162;-60
2021/10/13 00:50:30;;;;;;;15.20;8.23;;;;;;;;;;2102490;28;20209;-59
2021/10/13 00:51:31;;;;;;;13.10;9.60;;;;;;;;;;2103387;28;20171;-56
2021/10/13 00:52:32;;;;;;;13.83;8.60;;;;;;;;;;2087948;28;20675;-54
2021/10/13 00:53:33;;;;;;;11.80;9.73;;;;;;;;;;2083984;28;20199;-61
2021/10/13 00:54:34;;;;;;;12.57;8.77;;;;;;;;;;2098534;28;20185;-59
2021/10/13 00:55:34;;;;;;;12.23;7.10;;;;;;;;;;2091314;28;20176;-57
2021/10/13 00:56:34;;;;;;;11.23;8.07;;;;;;;;;;2098363;28;20214;-57
2021/10/13 00:57:34;;;;;;;12.90;8.67;;;;;;;;;;2095102;28;20236;-56
2021/10/13 00:58:34;;;;;;;14.20;8.73;;;;;;;;;;2090201;28;20244;-55
2021/10/13 00:59:35;;;;;;;12.83;8.63;;;;;;;;;;2094402;28;20195;-56
2021/10/13 01:00:40;;;;;;;17.43;8.40;;;;;;;;;;2095614;28;20198;-56
2021/10/13 01:01:47;;;;;;;12.97;7.97;;;;;;;;;;2097655;28;20627;-57
2021/10/13 01:02:53;;;;;;;13.63;7.73;;;;;;;;;;2072002;28;20181;-58
2021/10/13 01:04:04;;;;;;;10.10;8.40;;;;;;;;;;2075066;28;20197;-60
2021/10/13 01:05:20;;;;;;;13.27;7.50;;;;;;;;;;2098171;28;20206;-58
2021/10/13 01:06:25;;;;;;;9.60;7.20;;;;;;;;;;2089256;28;20189;-57
2021/10/13 01:07:37;;;;;;;10.23;8.13;;;;;;;;;;2088577;28;20698;-58
2021/10/13 01:08:49;;;;;;;11.55;7.00;;;;;;;;;;2093046;28;20890;-54
2021/10/13 01:09:49;;;;;;;14.43;7.83;;;;;;;;;;2089428;28;20160;-55
2021/10/13 01:10:58;;;;;;;8.90;7.10;;;;;;;;;;2089031;28;20172;-59
2021/10/13 01:12:14;;;;;;;14.17;7.90;;;;;;;;;;2096813;28;20168;-53
2021/10/13 01:13:14;;;;;;;11.10;7.87;;;;;;;;;;2098173;28;20165;-57
2021/10/13 01:14:16;;;;;;;15.87;8.07;;;;;;;;;;2100060;28;20512;-61
2021/10/13 01:15:27;;;;;;;14.75;8.70;;;;;;;;;;2098584;28;20186;-61
2021/10/13 01:16:40;;;;;;;15.40;7.37;;;;;;;;;;2095636;28;20665;-58
2021/10/13 01:17:43;;;;;;;12.67;7.90;;;;;;;;;;2094199;28;20199;-60
2021/10/13 01:19:03;;;;;;;13.17;8.40;;;;;;;;;;2084482;28;20176;-56
2021/10/13 01:20:07;;;;;;;8.68;7.35;;;;;;;;;;2084924;28;20227;-58
2021/10/13 01:21:13;;;;;;;10.50;7.43;;;;;;;;;;2098034;28;20218;-56
2021/10/13 01:22:36;;;;;;;11.83;7.37;;;;;;;;;;2103804;28;20173;-56
2021/10/13 01:23:39;;;;;;;11.10;6.97;;;;;;;;;;2099433;28;20179;-57
2021/10/13 01:24:42;;;;;;;10.93;7.73;;;;;;;;;;2105158;28;20198;-56
2021/10/13 01:25:42;;;;;;;17.60;7.87;;;;;;;;;;2098949;28;20198;-57
2021/10/13 01:26:52;;;;;;;18.15;8.95;;;;;;;;;;2106876;28;20186;-60
2021/10/13 01:27:53;;;;;;;12.80;8.40;;;;;;;;;;2091857;28;20651;-58
2021/10/13 01:28:55;;;;;;;19.37;8.70;;;;;;;;;;2102861;28;20167;-57
2021/10/13 01:29:57;;;;;;;14.53;8.73;;;;;;;;;;2102202;28;20274;-55
2021/10/13 01:30:58;;;;;;;14.83;8.43;;;;;;;;;;2104875;28;20174;-59
2021/10/13 01:32:01;;;;;;;14.73;8.80;;;;;;;;;;2099706;28;20179;-59
2021/10/13 01:33:03;;;;;;;14.03;8.97;;;;;;;;;;2096184;28;20253;-58
2021/10/13 01:34:08;;;;;;;13.73;9.27;;;;;;;;;;2085520;28;20263;-58
2021/10/13 01:35:10;;;;;;;17.67;8.60;;;;;;;;;;2096647;28;20220;-59
2021/10/13 01:36:12;;;;;;;13.20;8.53;;;;;;;;;;2098344;28;20547;-53
2021/10/13 01:37:20;;;;;;;16.57;8.67;;;;;;;;;;2095722;28;20189;-57
2021/10/13 01:38:22;;;;;;;12.67;8.03;;;;;;;;;;2093465;28;20174;-58
2021/10/13 01:39:24;;;;;;;12.77;8.27;;;;;;;;;;2089840;28;20662;-58
2021/10/13 01:40:27;;;;;;;22.07;9.20;;;;;;;;;;2102975;28;20711;-54
2021/10/13 01:41:28;;;;;;;12.00;8.32;;;;;;;;;;2100758;28;20182;-59
2021/10/13 01:42:29;;;;;;;13.77;7.77;;;;;;;;;;2103968;28;20209;-58
2021/10/13 01:43:34;;;;;;;12.17;7.20;;;;;;;;;;2099452;28;20170;-56
2021/10/13 01:44:34;;;;;;;12.90;7.30;;;;;;;;;;2102640;28;20689;-55
2021/10/13 01:45:35;;;;;;;14.13;8.03;;;;;;;;;;2098431;28;20175;-55
2021/10/13 01:46:35;;;;;;;13.90;8.17;;;;;;;;;;2105698;28;20186;-56
2021/10/13 01:47:37;;;;;;;15.00;8.88;;;;;;;;;;2096338;28;20191;-61
2021/10/13 01:48:39;;;;;;;17.13;9.07;;;;;;;;;;2102078;28;20224;-60
2021/10/13 01:49:39;;;;;;;17.52;10.13;;;;;;;;;;2099955;28;20187;-58
2021/10/13 01:50:40;;;;;;;16.87;10.37;;;;;;;;;;2106038;28;20201;-60
2021/10/13 01:51:41;;;;;;;16.40;10.73;;;;;;;;;;2114215;28;20232;-58
2021/10/13 01:52:42;;;;;;;17.00;10.23;;;;;;;;;;2107679;28;20175;-58
2021/10/13 01:53:44;;;;;;;15.77;10.37;;;;;;;;;;2097667;28;20171;-60
2021/10/13 01:54:44;;;;;;;16.87;9.80;;;;;;;;;;2090037;28;20196;-62
2021/10/13 01:55:45;;;;;;;16.30;9.70;;;;;;;;;;2097386;28;20188;-62
2021/10/13 01:56:45;;;;;;;22.30;10.60;;;;;;;;;;2097848;28;20211;-63
2021/10/13 01:57:47;;;;;;;14.03;10.13;;;;;;;;;;2115513;28;20201;-62
2021/10/13 01:58:48;;;;;;;16.23;10.57;;;;;;;;;;2098656;28;20240;-58
2021/10/13 01:59:51;;;;;;;14.70;9.80;;;;;;;;;;2106634;28;20580;-61
2021/10/13 02:00:52;;;;;;;12.47;8.97;;;;;;;;;;2108319;28;20159;-63
2021/10/13 02:01:53;;;;;;;17.60;9.17;;;;;;;;;;2114763;28;20186;-64
2021/10/13 02:02:54;;;;;;;15.03;9.03;;;;;;;;;;2109175;28;20201;-64
2021/10/13 02:03:55;;;;;;;13.57;9.57;;;;;;;;;;2113574;28;20202;-59
2021/10/13 02:04:56;;;;;;;16.70;10.40;;;;;;;;;;2108080;28;20383;-65
2021/10/13 02:05:59;;;;;;;17.00;9.43;;;;;;;;;;2108037;28;20167;-61
2021/10/13 02:06:59;;;;;;;13.17;9.57;;;;;;;;;;2100853;28;20190;-59
2021/10/13 02:08:00;;;;;;;16.77;9.03;;;;;;;;;;2108808;28;20198;-56
2021/10/13 02:09:01;;;;;;;12.90;8.60;;;;;;;;;;2105240;28;20622;-63
2021/10/13 02:10:04;;;;;;;14.60;8.77;;;;;;;;;;2106175;28;20159;-62
2021/10/13 02:11:05;;;;;;;13.03;9.03;;;;;;;;;;2110656;28;20167;-58
2021/10/13 02:12:06;;;;;;;15.17;9.17;;;;;;;;;;2109407;28;20213;-60
2021/10/13 02:13:06;;;;;;;13.60;9.05;;;;;;;;;;2114885;28;20163;-63
2021/10/13 02:14:08;;;;;;;14.27;8.83;;;;;;;;;;2102220;28;20270;-55
2021/10/13 02:15:10;;;;;;;14.07;9.30;;;;;;;;;;2103229;28;20199;-58
2021/10/13 02:16:11;;;;;;;17.20;9.80;;;;;;;;;;2101739;28;20193;-59
2021/10/13 02:17:11;;;;;;;13.37;9.47;;;;;;;;;;2093426;28;20202;-57
2021/10/13 02:18:13;;;;;;;13.67;9.93;;;;;;;;;;2089222;28;20847;-62
2021/10/13 02:19:15;;;;;;;15.27;9.97;;;;;;;;;;2099043;28;20207;-54
2021/10/13 02:20:15;;;;;;;13.23;10.20;;;;;;;;;;2098348;28;20725;-57
2021/10/13 02:21:19;;;;;;;15.47;9.43;;;;;;;;;;2097075;28;20183;-58
2021/10/13 02:22:20;;;;;;;14.33;8.77;;;;;;;;;;2093652;28;20620;-56
2021/10/13 02:23:22;;;;;;;14.70;10.10;;;;;;;;;;2092299;28;20167;-57
2021/10/13 02:24:24;;;;;;;13.17;9.07;;;;;;;;;;2099126;28;20764;-58
2021/10/13 02:25:30;;;;;;;11.77;9.13;;;;;;;;;;2101558;28;20171;-55
2021/10/13 02:26:40;;;;;;;21.60;9.63;;;;;;;;;;2103599;28;20253;-55
2021/10/13 02:27:41;;;;;;;11.90;9.20;;;;;;;;;;2096955;28;20183;-57
2021/10/13 02:28:43;;;;;;;14.70;9.33;;;;;;;;;;2094123;28;20198;-58
2021/10/13 02:29:43;;;;;;;15.17;9.20;;;;;;;;;;2099886;28;20721;-57
2021/10/13 02:30:46;;;;;;;14.17;9.80;;;;;;;;;;2098993;28;20246;-56
2021/10/13 02:31:46;;;;;;;15.57;10.23;;;;;;;;;;2097015;28;20171;-53
2021/10/13 02:32:48;;;;;;;12.77;9.85;;;;;;;;;;2101221;28;20531;-56
2021/10/13 02:33:48;;;;;;;19.45;10.63;;;;;;;;;;2095600;28;20228;-59
2021/10/13 02:34:48;;;;;;;16.98;11.00;;;;;;;;;;2095765;28;20195;-58
2021/10/13 02:35:51;;;;;;;19.37;11.43;;;;;;;;;;2098169;28;20178;-56
2021/10/13 02:36:51;;;;;;;13.90;9.65;;;;;;;;;;2097982;28;20195;-56
2021/10/13 02:37:51;;;;;;;19.47;11.00;;;;;;;;;;2099973;28;20724;-54
2021/10/13 02:38:52;;;;;;;15.33;10.03;;;;;;;;;;2098000;28;20179;-58
2021/10/13 02:39:52;;;;;;;17.43;10.63;;;;;;;;;;2097362;28;20175;-58
2021/10/13 02:40:52;;;;;;;14.07;10.82;;;;;;;;;;2091450;28;20656;-55
2021/10/13 02:41:52;;;;;;;19.17;11.33;;;;;;;;;;2092211;28;20168;-50
2021/10/13 02:42:53;;;;;;;18.33;10.48;;;;;;;;;;2082412;28;20547;-54
2021/10/13 02:43:53;;;;;;;24.50;10.83;;;;;;;;;;2100211;28;20258;-57
2021/10/13 02:44:53;;;;;;;15.03;10.70;;;;;;;;;;2098698;28;20282;-58
2021/10/13 02:45:58;;;;;;;21.00;10.80;;;;;;;;;;2099537;28;20171;-55
2021/10/13 02:47:02;;;;;;;16.47;11.30;;;;;;;;;;2098841;28;20167;-53
2021/10/13 02:48:06;;;;;;;17.23;10.93;;;;;;;;;;2090644;28;20176;-53
2021/10/13 02:49:12;;;;;;;15.77;11.27;;;;;;;;;;2091488;28;20241;-54
2021/10/13 02:50:24;;;;;;;13.40;10.27;;;;;;;;;;2099500;28;20677;-58
2021/10/13 02:51:31;;;;;;;17.03;11.27;;;;;;;;;;2101309;28;20182;-53
2021/10/13 02:52:35;;;;;;;15.40;10.13;;;;;;;;;;2102858;28;20166;-54
2021/10/13 02:53:43;;;;;;;14.57;10.43;;;;;;;;;;2098874;28;20197;-60
2021/10/13 02:54:48;;;;;;;15.20;10.85;;;;;;;;;;2100111;28;20199;-55
2021/10/13 02:55:54;;;;;;;14.45;10.20;;;;;;;;;;2093864;28;20638;-55
2021/10/13 02:56:56;;;;;;;15.70;10.70;;;;;;;;;;2104926;28;20200;-58
2021/10/13 02:58:15;;;;;;;12.30;9.80;;;;;;;;;;2098573;28;20175;-55
2021/10/13 02:59:17;;;;;;;17.60;10.65;;;;;;;;;;2101931;28;20654;-54
2021/10/13 03:00:18;;;;;;;14.37;10.97;;;;;;;;;;2101552;28;20657;-57
2021/10/13 03:01:19;;;;;;;18.17;10.90;;;;;;;;;;2102196;28;20174;-54
2021/10/13 03:02:23;;;;;;;11.85;9.90;;;;;;;;;;2101342;28;20174;-54
2021/10/13 03:03:27;;;;;;;15.93;10.85;;;;;;;;;;2100714;28;20665;-56
2021/10/13 03:04:30;;;;;;;20.00;11.07;;;;;;;;;;2100326;28;20174;-53
2021/10/13 03:05:31;;;;;;;13.37;10.83;;;;;;;;;;2098903;28;20201;-60
2021/10/13 03:06:37;;;;;;;17.57;10.77;;;;;;;;;;2090152;28;20611;-54
2021/10/13 03:07:38;;;;;;;17.20;10.50;;;;;;;;;;2093139;28;20188;-57
2021/10/13 03:08:41;;;;;;;11.68;10.48;;;;;;;;;;2097567;28;20239;-58
2021/10/13 03:09:49;;;;;;;14.97;10.93;;;;;;;;;;2094483;28;20189;-58
2021/10/13 03:10:52;;;;;;;15.53;10.03;;;;;;;;;;2093105;28;20171;-55
2021/10/13 03:11:53;;;;;;;16.50;10.17;;;;;;;;;;2100732;28;20183;-53
2021/10/13 03:12:55;;;;;;;17.93;10.53;;;;;;;;;;2100396;28;20635;-59
2021/10/13 03:13:55;;;;;;;19.43;13.03;;;;;;;;;;2097405;28;20688;-60
2021/10/13 03:14:56;;;;;;;13.48;9.52;;;;;;;;;;2098263;28;20182;-61
2021/10/13 03:15:58;;;;;;;16.60;9.87;;;;;;;;;;2099521;28;20194;-60
2021/10/13 03:16:59;;;;;;;16.43;11.27;;;;;;;;;;2092867;28;20180;-61
2021/10/13 03:17:59;;;;;;;11.65;9.73;;;;;;;;;;2097871;28;20183;-58
2021/10/13 03:19:00;;;;;;;14.90;9.23;;;;;;;;;;2089268;28;20215;-54
2021/10/13 03:20:01;;;;;;;13.48;8.82;;;;;;;;;;2088191;28;20172;-56
2021/10/13 03:21:01;;;;;;;11.13;9.63;;;;;;;;;;2096590;28;20187;-54
2021/10/13 03:22:02;;;;;;;12.67;9.67;;;;;;;;;;2099175;28;20240;-54
2021/10/13 03:23:03;;;;;;;16.60;9.30;;;;;;;;;;2094674;28;20199;-52
2021/10/13 03:24:03;;;;;;;13.23;8.83;;;;;;;;;;2090902;28;20651;-57
2021/10/13 03:25:04;;;;;;;13.70;8.80;;;;;;;;;;2100990;28;20198;-58
2021/10/13 03:26:07;;;;;;;15.20;9.90;;;;;;;;;;2091147;28;20580;-55
2021/10/13 03:27:07;;;;;;;12.27;9.47;;;;;;;;;;2093643;28;20220;-54
2021/10/13 03:28:07;;;;;;;13.13;9.33;;;;;;;;;;2098175;28;20278;-57
2021/10/13 03:29:10;;;;;;;16.93;10.17;;;;;;;;;;2094366;28;20186;-60
2021/10/13 03:30:10;;;;;;;12.47;9.87;;;;;;;;;;2086869;28;20202;-58
2021/10/13 03:31:11;;;;;;;14.13;9.73;;;;;;;;;;2099692;28;20170;-58
2021/10/13 03:32:16;;;;;;;17.90;10.80;;;;;;;;;;2101149;28;20664;-60
2021/10/13 03:33:16;;;;;;;18.23;10.70;;;;;;;;;;2101943;28;20205;-59
2021/10/13 03:34:17;;;;;;;15.10;11.20;;;;;;;;;;2092579;28;20171;-57
2021/10/13 03:35:27;;;;;;;16.23;10.30;;;;;;;;;;2093188;28;20223;-60
2021/10/13 03:36:36;;;;;;;17.83;11.13;;;;;;;;;;2098560;28;20635;-58
2021/10/13 03:37:36;;;;;;;15.80;11.47;;;;;;;;;;2100056;28;20237;-60
2021/10/13 03:38:36;;;;;;;14.77;10.20;;;;;;;;;;2092559;28;20171;-60
2021/10/13 03:39:37;;;;;;;16.13;10.83;;;;;;;;;;2096998;28;20179;-60
2021/10/13 03:40:37;;;;;;;12.40;10.90;;;;;;;;;;2103067;28;20174;-53
2021/10/13 03:41:37;;;;;;;17.67;11.03;;;;;;;;;;2098793;28;20183;-57
2021/10/13 03:42:38;;;;;;;14.03;10.43;;;;;;;;;;2087426;28;20217;-56
2021/10/13 03:43:48;;;;;;;16.57;10.17;;;;;;;;;;2077494;28;20177;-54
2021/10/13 03:44:49;;;;;;;17.70;11.07;;;;;;;;;;2089991;28;20196;-56
2021/10/13 03:45:49;;;;;;;13.87;11.07;;;;;;;;;;2088703;28;20171;-59
2021/10/13 03:46:49;;;;;;;20.47;10.53;;;;;;;;;;2089310;28;20218;-59
2021/10/13 03:47:50;;;;;;;15.27;10.20;;;;;;;;;;2097810;28;20552;-57
2021/10/13 03:48:51;;;;;;;18.67;11.50;;;;;;;;;;2098079;28;20199;-57
2021/10/13 03:49:51;;;;;;;18.67;11.27;;;;;;;;;;2088898;28;20175;-58
2021/10/13 03:50:51;;;;;;;14.83;10.53;;;;;;;;;;2088825;28;20238;-58
2021/10/13 03:51:51;;;;;;;17.37;10.90;;;;;;;;;;2098000;28;20185;-60
2021/10/13 03:52:52;;;;;;;13.75;10.32;;;;;;;;;;2098246;28;20167;-57
2021/10/13 03:53:52;;;;;;;12.50;9.73;;;;;;;;;;2098561;28;20171;-58
2021/10/13 03:54:52;;;;;;;15.57;9.70;;;;;;;;;;2098207;28;20245;-58
2021/10/13 03:55:53;;;;;;;15.20;9.73;;;;;;;;;;2089444;28;20168;-60
2021/10/13 03:56:53;;;;;;;17.30;10.33;;;;;;;;;;2089942;28;20180;-57
2021/10/13 03:57:53;;;;;;;12.37;9.87;;;;;;;;;;2098363;28;20583;-60
2021/10/13 03:58:53;;;;;;;15.23;10.23;;;;;;;;;;2102484;28;20171;-59
2021/10/13 03:59:54;;;;;;;15.97;10.83;;;;;;;;;;2097794;28;20179;-61
2021/10/13 04:00:54;;;;;;;16.10;10.27;;;;;;;;;;2097263;28;20523;-56
2021/10/13 04:01:54;;;;;;;14.80;9.73;;;;;;;;;;2097924;28;20224;-57
2021/10/13 04:02:55;;;;;;;16.70;11.13;;;;;;;;;;2097874;28;20167;-57
2021/10/13 04:03:55;;;;;;;15.07;10.37;;;;;;;;;;2098093;28;20177;-54
2021/10/13 04:04:55;;;;;;;14.10;10.60;;;;;;;;;;2097149;28;20199;-58
2021/10/13 04:05:55;;;;;;;14.80;10.50;;;;;;;;;;2093088;28;20198;-54
2021/10/13 04:06:56;;;;;;;14.33;9.07;;;;;;;;;;2097158;28;20183;-55
2021/10/13 04:07:56;;;;;;;15.73;9.07;;;;;;;;;;2090286;28;20159;-58
2021/10/13 04:08:56;;;;;;;15.77;10.27;;;;;;;;;;2096839;28;20170;-58
2021/10/13 04:09:56;;;;;;;14.87;9.93;;;;;;;;;;2096853;28;20171;-54
2021/10/13 04:10:57;;;;;;;13.30;9.37;;;;;;;;;;2091573;28;20209;-55
2021/10/13 04:11:57;;;;;;;17.53;9.57;;;;;;;;;;2091223;28;20179;-54
2021/10/13 04:12:57;;;;;;;13.97;9.20;;;;;;;;;;2096447;28;20163;-57
2021/10/13 04:13:57;;;;;;;17.03;9.80;;;;;;;;;;2096494;28;20696;-54
2021/10/13 04:14:58;;;;;;;14.33;9.07;;;;;;;;;;2097469;28;20210;-53
2021/10/13 04:15:58;;;;;;;14.77;9.20;;;;;;;;;;2087909;28;20310;-58
2021/10/13 04:16:58;;;;;;;14.30;8.43;;;;;;;;;;2088066;28;20220;-59
2021/10/13 04:17:59;;;;;;;14.30;9.43;;;;;;;;;;2097883;28;20903;-58
2021/10/13 04:18:59;;;;;;;13.23;8.17;;;;;;;;;;2095505;28;20159;-61
2021/10/13 04:20:09;;;;;;;12.37;8.97;;;;;;;;;;2088203;28;20233;-58
2021/10/13 04:21:10;;;;;;;13.73;8.97;;;;;;;;;;2097352;28;20193;-55
2021/10/13 04:22:10;;;;;;;11.73;9.33;;;;;;;;;;2104018;28;20173;-54
2021/10/13 04:23:10;;;;;;;18.57;10.40;;;;;;;;;;2102651;28;20171;-53
2021/10/13 04:24:10;;;;;;;13.23;10.23;;;;;;;;;;2100185;28;20572;-53
2021/10/13 04:25:11;;;;;;;15.33;10.40;;;;;;;;;;2090004;28;20222;-52
2021/10/13 04:26:11;;;;;;;13.73;10.47;;;;;;;;;;2091185;28;20198;-57
2021/10/13 04:27:11;;;;;;;16.10;11.73;;;;;;;;;;2100373;28;20213;-55
2021/10/13 04:28:12;;;;;;;18.50;10.30;;;;;;;;;;2097645;28;20171;-59
2021/10/13 04:29:12;;;;;;;17.00;11.07;;;;;;;;;;2099519;28;20216;-58
2021/10/13 04:30:12;;;;;;;16.33;11.47;;;;;;;;;;2103918;28;20256;-58
2021/10/13 04:31:15;;;;;;;17.13;11.53;;;;;;;;;;2100036;28;20197;-59
2021/10/13 04:32:15;;;;;;;23.03;12.37;;;;;;;;;;2102222;28;20170;-61
2021/10/13 04:33:15;;;;;;;15.60;11.53;;;;;;;;;;2102645;28;20170;-61
2021/10/13 04:34:15;;;;;;;16.37;11.17;;;;;;;;;;2103797;28;20704;-60
2021/10/13 04:35:16;;;;;;;16.97;11.70;;;;;;;;;;2094949;28;20199;-59
2021/10/13 04:36:16;;;;;;;18.53;11.80;;;;;;;;;;2097076;28;20518;-59
2021/10/13 04:37:16;;;;;;;21.27;12.30;;;;;;;;;;2101186;28;20202;-59
2021/10/13 04:38:16;;;;;;;21.13;13.83;;;;;;;;;;2093433;28;20266;-58
2021/10/13 04:39:17;;;;;;;24.90;12.97;;;;;;;;;;2101985;28;20166;-58
2021/10/13 04:40:19;;;;;;;19.87;12.53;;;;;;;;;;2100808;28;20244;-54
2021/10/13 04:41:19;;;;;;;19.93;12.90;;;;;;;;;;2101796;28;20844;-57
2021/10/13 04:42:20;;;;;;;25.53;14.03;;;;;;;;;;2097182;28;20187;-56
2021/10/13 04:43:20;;;;;;;23.77;14.23;;;;;;;;;;2098094;28;20182;-54
2021/10/13 04:44:20;;;;;;;18.90;12.80;;;;;;;;;;2088616;28;20180;-56
2021/10/13 04:45:20;;;;;;;23.03;13.13;;;;;;;;;;2088839;28;20183;-57
2021/10/13 04:46:20;;;;;;;21.30;14.10;;;;;;;;;;2094277;28;20183;-58
2021/10/13 04:47:21;;;;;;;28.00;13.90;;;;;;;;;;2103563;28;20536;-58
2021/10/13 04:48:21;;;;;;;23.60;14.40;;;;;;;;;;2102805;28;20545;-56
2021/10/13 04:49:21;;;;;;;21.30;13.90;;;;;;;;;;2090288;28;20226;-57
2021/10/13 04:50:22;;;;;;;19.37;13.70;;;;;;;;;;2089474;28;20230;-55
2021/10/13 04:51:22;;;;;;;23.10;13.97;;;;;;;;;;2104030;28;20682;-54
2021/10/13 04:52:22;;;;;;;18.47;13.03;;;;;;;;;;2101247;28;20631;-56
2021/10/13 04:53:22;;;;;;;25.17;14.10;;;;;;;;;;2100509;28;20271;-54
2021/10/13 04:54:23;;;;;;;22.80;12.60;;;;;;;;;;2094226;28;20608;-53
2021/10/13 04:55:24;;;;;;;18.13;12.90;;;;;;;;;;2082629;28;20611;-57
2021/10/13 04:56:24;;;;;;;17.83;12.33;;;;;;;;;;2090083;28;20305;-55
2021/10/13 04:57:24;;;;;;;19.00;12.13;;;;;;;;;;2103849;28;20162;-53
2021/10/13 04:58:24;;;;;;;16.43;11.73;;;;;;;;;;2105751;28;20203;-59
2021/10/13 04:59:25;;;;;;;28.40;11.80;;;;;;;;;;2093957;28;20178;-58
2021/10/13 05:00:25;;;;;;;19.57;11.40;;;;;;;;;;2082068;28;20172;-61
2021/10/13 05:01:26;;;;;;;16.63;11.03;;;;;;;;;;2093948;28;20199;-61
2021/10/13 05:02:26;;;;;;;16.67;11.60;;;;;;;;;;2092535;28;20214;-64
2021/10/13 05:03:26;;;;;;;14.17;10.77;;;;;;;;;;2097265;28;20202;-61
2021/10/13 05:04:26;;;;;;;14.90;10.50;;;;;;;;;;2098526;28;20641;-65
2021/10/13 05:05:27;;;;;;;18.77;10.40;;;;;;;;;;2090424;28;20660;-58
2021/10/13 05:06:27;;;;;;;15.57;11.10;;;;;;;;;;2091988;28;20172;-55
2021/10/13 05:07:27;;;;;;;12.87;11.13;;;;;;;;;;2103105;28;20238;-59
2021/10/13 05:08:27;;;;;;;15.10;10.43;;;;;;;;;;2097708;28;20253;-57
2021/10/13 05:09:27;;;;;;;18.90;10.27;;;;;;;;;;2094002;28;20167;-58
2021/10/13 05:10:28;;;;;;;15.67;11.20;;;;;;;;;;2096945;28;20213;-61
2021/10/13 05:11:28;;;;;;;15.77;11.37;;;;;;;;;;2096523;28;20661;-64
2021/10/13 05:12:28;;;;;;;17.70;11.03;;;;;;;;;;2091871;28;20632;-53
2021/10/13 05:13:29;;;;;;;19.38;10.70;;;;;;;;;;2102703;28;20198;-58
2021/10/13 05:14:29;;;;;;;15.57;10.03;;;;;;;;;;2107353;28;20794;-60
2021/10/13 05:15:29;;;;;;;16.17;10.47;;;;;;;;;;2101513;28;20642;-59
2021/10/13 05:16:30;;;;;;;16.47;10.17;;;;;;;;;;2105863;28;20171;-62
2021/10/13 05:17:30;;;;;;;14.87;9.80;;;;;;;;;;2102074;28;20167;-59
2021/10/13 05:18:31;;;;;;;16.15;9.75;;;;;;;;;;2105175;28;20202;-57
2021/10/13 05:19:31;;;;;;;17.03;10.37;;;;;;;;;;2090997;28;20178;-58
2021/10/13 05:20:31;;;;;;;20.83;10.60;;;;;;;;;;2090469;28;20189;-60
2021/10/13 05:21:32;;;;;;;15.93;10.67;;;;;;;;;;2105786;28;20231;-57
2021/10/13 05:22:32;;;;;;;17.77;11.00;;;;;;;;;;2092509;28;20263;-60
2021/10/13 05:23:32;;;;;;;19.30;11.00;;;;;;;;;;2093428;28;20180;-59
2021/10/13 05:24:35;;;;;;;13.38;10.32;;;;;;;;;;2097274;28;20261;-54
2021/10/13 05:25:36;;;;;;;17.23;10.63;;;;;;;;;;2087005;22;20236;-62
2021/10/13 05:26:36;;;;;;;14.57;10.23;;;;;;;;;;2083521;28;20236;-64
2021/10/13 05:27:36;;;;;;;18.07;10.80;;;;;;;;;;2089182;28;20218;-61
2021/10/13 05:28:37;;;;;;;19.80;11.18;;;;;;;;;;2090840;28;20180;-59
2021/10/13 05:29:37;;;;;;;14.27;10.43;;;;;;;;;;2087496;28;20181;-60
2021/10/13 05:30:37;;;;;;;14.57;9.27;;;;;;;;;;2089958;28;20222;-61
2021/10/13 05:31:37;;;;;;;16.02;10.63;;;;;;;;;;2090257;28;20236;-61
2021/10/13 05:32:38;;;;;;;14.03;10.80;;;;;;;;;;2089106;28;20168;-61
2021/10/13 05:33:38;;;;;;;17.63;9.90;;;;;;;;;;2082003;28;20730;-60
2021/10/13 05:34:38;;;;;;;18.57;10.57;;;;;;;;;;2074200;28;20200;-59
2021/10/13 05:35:38;;;;;;;15.93;9.93;;;;;;;;;;2078801;28;20231;-61
2021/10/13 05:36:39;;;;;;;19.27;10.80;;;;;;;;;;2084871;28;20180;-61
2021/10/13 05:37:39;;;;;;;15.20;9.87;;;;;;;;;;2085251;28;20165;-60
2021/10/13 05:38:39;;;;;;;15.50;10.70;;;;;;;;;;2076268;28;20192;-59
2021/10/13 05:39:40;;;;;;;15.03;10.30;;;;;;;;;;2077909;28;20193;-60
2021/10/13 05:40:40;;;;;;;15.93;10.30;;;;;;;;;;2075864;28;20180;-60
2021/10/13 05:41:40;;;;;;;15.40;10.17;;;;;;;;;;2090001;28;20241;-61
2021/10/13 05:42:41;;;;;;;17.40;10.97;;;;;;;;;;2082471;28;20176;-61
2021/10/13 05:43:41;;;;;;;18.87;10.57;;;;;;;;;;2074616;28;20244;-62
2021/10/13 05:44:41;;;;;;;16.40;10.13;;;;;;;;;;2083205;28;20390;-60
2021/10/13 05:45:41;;;;;;;18.77;10.93;;;;;;;;;;2075068;28;20169;-58
2021/10/13 05:46:42;;;;;;;15.50;10.33;;;;;;;;;;2074451;28;20192;-60
2021/10/13 05:47:42;;;;;;;13.73;9.77;;;;;;;;;;2082387;28;20192;-63
2021/10/13 05:48:42;;;;;;;20.58;10.52;;;;;;;;;;2090266;28;20194;-60
2021/10/13 05:49:42;;;;;;;12.63;10.05;;;;;;;;;;2090141;28;20199;-61
2021/10/13 05:50:43;;;;;;;15.30;10.18;;;;;;;;;;2090423;28;20210;-60
2021/10/13 05:51:43;;;;;;;12.43;9.63;;;;;;;;;;2090740;28;20171;-62
2021/10/13 05:52:43;;;;;;;18.20;10.30;;;;;;;;;;2091853;28;20179;-60
2021/10/13 05:53:43;;;;;;;12.40;9.80;;;;;;;;;;2091356;28;20171;-62
2021/10/13 05:54:44;;;;;;;16.30;9.37;;;;;;;;;;2091339;28;20648;-61
2021/10/13 05:55:44;;;;;;;11.70;9.20;;;;;;;;;;2091445;28;20253;-61
2021/10/13 05:56:49;;;;;;;21.43;10.50;;;;;;;;;;2089297;28;20168;-60
2021/10/13 05:57:50;;;;;;;23.97;10.00;;;;;;;;;;2091370;28;20256;-61
2021/10/13 05:58:53;;;;;;;21.00;10.13;;;;;;;;;;2089055;28;20203;-61
2021/10/13 05:59:56;;;;;;;20.20;10.02;;;;;;;;;;2091022;28;20214;-60
2021/10/13 06:00:57;;;;;;;21.10;10.13;;;;;;;;;;2090295;28;20182;-61
2021/10/13 06:01:57;;;;;;;14.70;9.53;;;;;;;;;;2083125;28;20160;-60